Terminal Aerodrome Forecast
Issued by NWS

Home | Current Version | Previous Version | Text Only | Print | Product List | Glossary On
Versions: 1 2 3 4 5 6 7 8 9 10 11 12 13 14
000
FTUS45 KBOI 301906 AAA
TAFBKE
TAF AMD
KBKE 301906Z 3019/3118 VRB06KT P6SM BKN150
     FM302100 14015G25KT P6SM SCT100 BKN200
     FM310000 14011KT P6SM SCT100 BKN200
     FM310300 31010KT P6SM SCT200=

USA.gov is the U.S. government's official web portal to all federal, state and local government web resources and services.